Chesterville, Texas
Current Conditions -  °F | °C
As of 8:15 AM on Thursday 30 Oct 2014 (Local Time) from KELA Reporting Station
Scattered Clouds Scattered Clouds  
Wind Chill: 59°   Ceiling: Unl
Heat Index: 59°   Visibility: 7mi
Dew Point: 58°   Wind: 3mph
Humidity: 97%   Direction: 30°NNE
Pressure: 30.12"   Gusts: NA
Location:  29.4737°N, 96.1754°W
Report Text: KELA 301315Z AUTO 03003KT 7SM SCT014 15/14 A3012 RMK AO2 T01480143
Loading
Personal Weather Stations






























Interactive Weather Map
Tropical Storm Tracking
New forecast layout! Learn more

10-Day Weather Forecast

Advertisements
Track Severe Weather on mobile